Union Ranger — SYMB — position and weather

sailwx.info

Track history (hours):
 
Tides and Currents Weather Stations Pressure Air Temp Water Temp Dewpoint Dewpoint Depression Visibility Wind Speed Wind Dir Waves Ship Positions

Union Ranger

Last reported at 2016-Jul-27 20:18 UTC. Time now 2016-Jul-27 21:12 UTC.
Position N 45°33' W 073°31'.

Length 185 m; draft 6.4 m.

Type: Ship. MMSI: 240070000.

Date/timePositionNaut miles runAvg speedWind from/ knotsBaromVisibWave heightAir tempDewpointWater temp
2016-Jul-27 20:18N 45°33' W 073°31'0 0.0
2016-Jul-27 19:27N 45°33' W 073°31'0 0.0
2016-Jul-27 18:30N 45°33' W 073°31'0 0.0
2016-Jul-27 17:24N 45°33' W 073°31'0 0.0
2016-Jul-27 16:30N 45°33' W 073°31'0 0.0
2016-Jul-27 15:30N 45°33' W 073°31'0 0.0
2016-Jul-27 14:33N 45°33' W 073°31'0 0.0
2016-Jul-27 13:30N 45°33' W 073°31'0 0.0
2016-Jul-27 12:30N 45°33' W 073°31'0 0.0
2016-Jul-27 11:30N 45°33' W 073°31'0 0.0
2016-Jul-27 10:24N 45°33' W 073°31'0 0.0
2016-Jul-27 09:30N 45°33' W 073°31'0 0.0
2016-Jul-27 08:30N 45°33' W 073°31'0 0.0
2016-Jul-27 07:30N 45°33' W 073°31'0 0.0
2016-Jul-27 06:33N 45°33' W 073°31'0 0.0
2016-Jul-27 05:27N 45°33' W 073°31'0 0.0
2016-Jul-27 04:30N 45°33' W 073°31'0 0.0
2016-Jul-27 03:33N 45°33' W 073°31'0 0.0
2016-Jul-27 02:33N 45°33' W 073°31'0 0.0
2016-Jul-27 01:30N 45°33' W 073°31'0 0.0
2016-Jul-27 00:33N 45°33' W 073°31'0 0.0
2016-Jul-26 23:30N 45°33' W 073°31'0 0.0
2016-Jul-26 22:24N 45°33' W 073°31'0 0.0
2016-Jul-26 21:30N 45°33' W 073°31'0 0.0
2016-Jul-26 20:33N 45°33' W 073°31'0 0.0
2016-Jul-26 19:30N 45°33' W 073°31'0 0.0
2016-Jul-26 18:33N 45°33' W 073°31'0 0.0
2016-Jul-26 17:30N 45°33' W 073°31'0 0.0
2016-Jul-26 16:30N 45°33' W 073°31'0 0.0
2016-Jul-26 15:30N 45°33' W 073°31'0 0.0
2016-Jul-26 14:33N 45°33' W 073°31'0 0.0
2016-Jul-26 13:30N 45°33' W 073°31'0 0.0
2016-Jul-26 12:30N 45°33' W 073°31'0 0.0
2016-Jul-26 11:33N 45°33' W 073°31'0 0.0
2016-Jul-26 10:30N 45°33' W 073°31'0 0.0
2016-Jul-26 09:33N 45°33' W 073°31'0 0.0
2016-Jul-26 08:30N 45°33' W 073°31'0 0.0
2016-Jul-26 07:33N 45°33' W 073°31'0 0.0
2016-Jul-26 06:30N 45°33' W 073°31'0 0.0
2016-Jul-26 05:30N 45°33' W 073°31'0 0.0
2016-Jul-26 04:30N 45°33' W 073°31'0 0.0
2016-Jul-26 03:30N 45°33' W 073°31'0 0.0
2016-Jul-26 02:30N 45°33' W 073°31'0 0.0
2016-Jul-26 01:30N 45°33' W 073°31'0 0.0
2016-Jul-26 00:33N 45°33' W 073°31'0 0.0
2016-Jul-25 23:06N 45°33' W 073°31'0 0.0
2016-Jul-25 22:33N 45°33' W 073°31'0 0.0
2016-Jul-25 21:30N 45°33' W 073°31'0 0.0
2016-Jul-25 20:30N 45°33' W 073°31'0 0.0
2016-Jul-25 19:33N 45°33' W 073°31'0 0.0
2016-Jul-25 18:33N 45°33' W 073°31'0 0.0
2016-Jul-25 17:24N 45°33' W 073°31'0 0.0
2016-Jul-25 16:24N 45°33' W 073°31'0 0.0
2016-Jul-25 15:30N 45°33' W 073°31'0 0.0
2016-Jul-25 14:30N 45°33' W 073°31'0 0.0
2016-Jul-25 13:24N 45°33' W 073°31'0 0.0
2016-Jul-25 12:33N 45°33' W 073°31'0 0.0
2016-Jul-25 11:33N 45°33' W 073°31'0 0.0
2016-Jul-25 10:30N 45°33' W 073°31'0 0.0
2016-Jul-25 09:33N 45°33' W 073°31'0 0.0
2016-Jul-25 08:30N 45°33' W 073°31'0 0.0
2016-Jul-25 07:30N 45°33' W 073°31'0 0.0
2016-Jul-25 06:30N 45°33' W 073°31'0 0.0
2016-Jul-25 05:27N 45°33' W 073°31'0 0.0
2016-Jul-25 04:33N 45°33' W 073°31'0 0.0
2016-Jul-25 03:33N 45°33' W 073°31'0 0.0
2016-Jul-25 02:33N 45°33' W 073°31'0 0.0
2016-Jul-25 01:30N 45°33' W 073°31'0 0.0
2016-Jul-25 00:33N 45°33' W 073°31'4 3.4
2016-Jul-24 23:21N 45°37' W 073°30'7 8.8
2016-Jul-24 22:33N 45°44' W 073°25'1010.4
2016-Jul-24 21:33N 45°52' W 073°16'9 9.0
2016-Jul-24 20:33N 45°60' W 073°11'1 0.5
2016-Jul-24 19:31N 46°00' W 073°10'0 0.0
2016-Jul-24 18:25N 46°00' W 073°10'0 0.0
2016-Jul-24 17:31N 46°00' W 073°10'0 0.0
2016-Jul-24 16:31N 46°00' W 073°10'0 0.0
2016-Jul-24 15:31N 46°00' W 073°10'0 0.0
2016-Jul-24 14:31N 46°00' W 073°10'0 0.0
2016-Jul-24 13:31N 46°00' W 073°10'0 0.0
2016-Jul-24 12:31N 46°00' W 073°10'0 0.0
2016-Jul-24 11:31N 46°00' W 073°10'0 0.0
2016-Jul-24 10:31N 46°00' W 073°10'0 0.0
2016-Jul-24 09:31N 46°00' W 073°10'0 0.0
2016-Jul-24 08:31N 46°00' W 073°10'0 0.0
2016-Jul-24 07:31N 46°00' W 073°10'0 0.0
2016-Jul-24 06:31N 46°00' W 073°10'0 0.0
2016-Jul-24 05:31N 46°00' W 073°10'0 0.0
2016-Jul-24 04:31N 46°00' W 073°10'0 0.0
2016-Jul-24 03:31N 46°00' W 073°10'0 0.0
2016-Jul-24 02:31N 46°00' W 073°10'0 0.0
2016-Jul-24 01:31N 46°00' W 073°10'0 0.0
2016-Jul-24 00:31N 46°00' W 073°10'0 0.0
2016-Jul-23 23:31N 46°00' W 073°10'0 0.0
2016-Jul-23 22:31N 46°00' W 073°10'0 0.0
2016-Jul-23 21:31N 46°00' W 073°10'0 0.0
2016-Jul-23 20:31N 46°00' W 073°10'0 0.0
2016-Jul-23 19:31N 46°00' W 073°10'0 0.0
2016-Jul-23 18:31N 46°00' W 073°10'0 0.0
2016-Jul-23 17:31N 46°00' W 073°10'0 0.0
2016-Jul-23 16:31N 46°00' W 073°10'0 0.0
2016-Jul-23 15:31N 46°00' W 073°10'0 0.0
2016-Jul-23 14:31N 46°00' W 073°10'0 0.0
2016-Jul-23 13:31N 46°00' W 073°10'0 0.0
2016-Jul-23 12:19N 46°00' W 073°10'0 0.0
2016-Jul-23 11:31N 46°00' W 073°10'0 0.0
2016-Jul-23 10:31N 46°00' W 073°10'0 0.0
2016-Jul-23 09:31N 46°00' W 073°10'0 0.0
2016-Jul-23 08:31N 46°00' W 073°10'0 0.0
2016-Jul-23 07:31N 46°00' W 073°10'0 0.0
2016-Jul-23 06:31N 46°00' W 073°10'0 0.0
2016-Jul-23 04:31N 46°00' W 073°10'0 0.0
2016-Jul-23 03:31N 46°00' W 073°10'0 0.0
2016-Jul-23 02:31N 46°00' W 073°10'0 0.0
2016-Jul-23 01:31N 46°00' W 073°10'0 0.0
2016-Jul-23 00:31N 46°00' W 073°10'0 0.0
2016-Jul-22 23:31N 46°00' W 073°10'0 0.0
2016-Jul-22 22:31N 46°00' W 073°10'0 0.0
2016-Jul-22 21:31N 46°00' W 073°10'0 0.0
2016-Jul-22 20:31N 46°00' W 073°10'0 0.0
2016-Jul-22 19:31N 46°00' W 073°10'0 0.0
2016-Jul-22 18:31N 46°00' W 073°10'0 0.0
2016-Jul-22 17:31N 46°00' W 073°10'0 0.0
2016-Jul-22 16:31N 46°00' W 073°10'0 0.0
2016-Jul-22 15:31N 46°00' W 073°10'0 0.0
2016-Jul-22 14:31N 46°00' W 073°10'0 0.0
2016-Jul-22 13:31N 46°00' W 073°10'0 0.0
2016-Jul-22 12:31N 46°00' W 073°10'0 0.0
2016-Jul-22 11:31N 46°00' W 073°10'0 0.0
2016-Jul-22 10:31N 46°00' W 073°10'0 0.0
2016-Jul-22 09:31N 46°00' W 073°10'0 0.0
2016-Jul-22 08:31N 46°00' W 073°10'0 0.0
2016-Jul-22 07:31N 46°00' W 073°10'0 0.0
2016-Jul-22 04:31N 46°00' W 073°10'0 0.0
2016-Jul-22 03:31N 46°00' W 073°10'0 0.0
2016-Jul-22 02:31N 46°00' W 073°10'0 0.0
2016-Jul-22 01:31N 46°00' W 073°10'0 0.0
2016-Jul-22 00:31N 46°00' W 073°10'0 0.0
2016-Jul-21 23:31N 46°00' W 073°10'0 0.0
2016-Jul-21 22:31N 46°00' W 073°10'0 0.0
2016-Jul-21 21:31N 46°00' W 073°10'0 0.0
2016-Jul-21 20:31N 46°00' W 073°10'0 0.0
2016-Jul-21 19:31N 46°00' W 073°10'0 0.0
2016-Jul-21 18:31N 46°00' W 073°10'0 0.0
2016-Jul-21 17:31N 46°00' W 073°10'0 0.0
2016-Jul-21 16:31N 46°00' W 073°10'0 0.0
2016-Jul-21 15:31N 46°00' W 073°10'0 0.0
2016-Jul-21 14:31N 46°00' W 073°10'0 0.0
2016-Jul-21 13:31N 46°00' W 073°10'0 0.0
2016-Jul-21 12:31N 46°00' W 073°10'0 0.0
2016-Jul-21 11:28N 46°00' W 073°10'0 0.0
2016-Jul-21 10:31N 46°00' W 073°10'0 0.0
2016-Jul-21 09:31N 46°00' W 073°10'0 0.0
2016-Jul-21 08:31N 46°00' W 073°10'0 0.0
2016-Jul-21 07:31N 46°00' W 073°10'0 0.0
2016-Jul-21 06:31N 46°00' W 073°10'0 0.0
2016-Jul-21 05:31N 46°00' W 073°10'0 0.0
2016-Jul-21 04:31N 46°00' W 073°10'0 0.0
2016-Jul-21 03:31N 46°00' W 073°10'0 0.0
2016-Jul-21 02:25N 46°00' W 073°10'0 0.0
2016-Jul-21 01:31N 46°00' W 073°10'0 0.0
2016-Jul-21 00:31N 46°00' W 073°10'0 0.0
2016-Jul-20 23:31N 46°00' W 073°10'0 0.0
2016-Jul-20 22:31N 46°00' W 073°10'0 0.0
2016-Jul-20 21:31N 46°00' W 073°10'0 0.0
2016-Jul-20 20:31N 46°00' W 073°10'0 0.0
2016-Jul-20 19:31N 46°00' W 073°10'0 0.0
2016-Jul-20 18:31N 46°00' W 073°10'0 0.0
2016-Jul-20 17:31N 46°00' W 073°10'0 0.0
2016-Jul-20 16:25N 46°00' W 073°10'0 0.0
2016-Jul-20 15:31N 46°00' W 073°10'0 0.0
2016-Jul-20 14:28N 46°00' W 073°10'0 0.0
2016-Jul-20 13:31N 46°00' W 073°10'0 0.0
2016-Jul-20 12:31N 46°00' W 073°10'0 0.0
2016-Jul-20 11:31N 46°00' W 073°10'0 0.0
2016-Jul-20 10:31N 46°00' W 073°10'0 0.0
2016-Jul-20 09:34N 46°00' W 073°10'0 0.0
2016-Jul-20 08:19N 46°00' W 073°10'0 0.0
2016-Jul-20 07:31N 46°00' W 073°10'0 0.0
2016-Jul-20 06:34N 46°00' W 073°10'0 0.0
2016-Jul-20 05:31N 46°00' W 073°10'0 0.0
2016-Jul-20 04:31N 46°00' W 073°10'0 0.0
2016-Jul-20 03:31N 46°00' W 073°10'0 0.0
2016-Jul-20 02:31N 46°00' W 073°10'0 0.0
2016-Jul-20 01:31N 46°00' W 073°10'0 0.0
2016-Jul-20 00:31N 46°00' W 073°10'0 0.0
2016-Jul-19 23:31N 46°00' W 073°10'0 0.0
2016-Jul-19 22:31N 46°00' W 073°10'0 0.0
2016-Jul-19 21:31N 46°00' W 073°10'0 0.0
2016-Jul-19 20:31N 46°00' W 073°10'0 0.0
2016-Jul-19 19:31N 46°00' W 073°10'0 0.0
2016-Jul-19 18:31N 46°00' W 073°10'0 0.0
2016-Jul-19 17:31N 46°00' W 073°10'0 0.0
2016-Jul-19 16:31N 46°00' W 073°10'0 0.0
2016-Jul-19 15:31N 46°00' W 073°10'0 0.0
2016-Jul-19 14:31N 46°00' W 073°10'0 0.0
2016-Jul-19 13:31N 46°00' W 073°10'0 0.0
2016-Jul-19 12:31N 46°00' W 073°10'0 0.0
2016-Jul-19 11:31N 46°00' W 073°10'0 0.0
2016-Jul-19 10:31N 46°00' W 073°10'0 0.0
2016-Jul-19 09:31N 46°00' W 073°10'0 0.0
2016-Jul-19 08:31N 46°00' W 073°10'0 0.1
2016-Jul-19 07:33N 46°00' W 073°10'25 8.5
2016-Jul-19 04:33N 46°16' W 072°41'  
Track history (hours):
 
Tides and Currents Weather Stations Pressure Air Temp Water Temp Dewpoint Dewpoint Depression Visibility Wind Speed Wind Dir Waves Ship Positions

Union Ranger

Last reported at 2016-Jul-27 20:18 UTC. Time now 2016-Jul-27 21:12 UTC.
Position N 45°33' W 073°31'.

Length 185 m; draft 6.4 m.

Type: Ship. MMSI: 240070000.

Date/timePositionNaut miles runAvg speedWind from/ knotsBaromVisibWave heightAir tempDewpointWater temp
2016-Jul-27 20:18N 45°33' W 073°31'0 0.0
2016-Jul-27 19:27N 45°33' W 073°31'0 0.0
2016-Jul-27 18:30N 45°33' W 073°31'0 0.0
2016-Jul-27 17:24N 45°33' W 073°31'0 0.0
2016-Jul-27 16:30N 45°33' W 073°31'0 0.0
2016-Jul-27 15:30N 45°33' W 073°31'0 0.0
2016-Jul-27 14:33N 45°33' W 073°31'0 0.0
2016-Jul-27 13:30N 45°33' W 073°31'0 0.0
2016-Jul-27 12:30N 45°33' W 073°31'0 0.0
2016-Jul-27 11:30N 45°33' W 073°31'0 0.0
2016-Jul-27 10:24N 45°33' W 073°31'0 0.0
2016-Jul-27 09:30N 45°33' W 073°31'0 0.0
2016-Jul-27 08:30N 45°33' W 073°31'0 0.0
2016-Jul-27 07:30N 45°33' W 073°31'0 0.0
2016-Jul-27 06:33N 45°33' W 073°31'0 0.0
2016-Jul-27 05:27N 45°33' W 073°31'0 0.0
2016-Jul-27 04:30N 45°33' W 073°31'0 0.0
2016-Jul-27 03:33N 45°33' W 073°31'0 0.0
2016-Jul-27 02:33N 45°33' W 073°31'0 0.0
2016-Jul-27 01:30N 45°33' W 073°31'0 0.0
2016-Jul-27 00:33N 45°33' W 073°31'0 0.0
2016-Jul-26 23:30N 45°33' W 073°31'0 0.0
2016-Jul-26 22:24N 45°33' W 073°31'0 0.0
2016-Jul-26 21:30N 45°33' W 073°31'0 0.0
2016-Jul-26 20:33N 45°33' W 073°31'0 0.0
2016-Jul-26 19:30N 45°33' W 073°31'0 0.0
2016-Jul-26 18:33N 45°33' W 073°31'0 0.0
2016-Jul-26 17:30N 45°33' W 073°31'0 0.0
2016-Jul-26 16:30N 45°33' W 073°31'0 0.0
2016-Jul-26 15:30N 45°33' W 073°31'0 0.0
2016-Jul-26 14:33N 45°33' W 073°31'0 0.0
2016-Jul-26 13:30N 45°33' W 073°31'0 0.0
2016-Jul-26 12:30N 45°33' W 073°31'0 0.0
2016-Jul-26 11:33N 45°33' W 073°31'0 0.0
2016-Jul-26 10:30N 45°33' W 073°31'0 0.0
2016-Jul-26 09:33N 45°33' W 073°31'0 0.0
2016-Jul-26 08:30N 45°33' W 073°31'0 0.0
2016-Jul-26 07:33N 45°33' W 073°31'0 0.0
2016-Jul-26 06:30N 45°33' W 073°31'0 0.0
2016-Jul-26 05:30N 45°33' W 073°31'0 0.0
2016-Jul-26 04:30N 45°33' W 073°31'0 0.0
2016-Jul-26 03:30N 45°33' W 073°31'0 0.0
2016-Jul-26 02:30N 45°33' W 073°31'0 0.0
2016-Jul-26 01:30N 45°33' W 073°31'0 0.0
2016-Jul-26 00:33N 45°33' W 073°31'0 0.0
2016-Jul-25 23:06N 45°33' W 073°31'0 0.0
2016-Jul-25 22:33N 45°33' W 073°31'0 0.0
2016-Jul-25 21:30N 45°33' W 073°31'0 0.0
2016-Jul-25 20:30N 45°33' W 073°31'0 0.0
2016-Jul-25 19:33N 45°33' W 073°31'0 0.0
2016-Jul-25 18:33N 45°33' W 073°31'0 0.0
2016-Jul-25 17:24N 45°33' W 073°31'0 0.0
2016-Jul-25 16:24N 45°33' W 073°31'0 0.0
2016-Jul-25 15:30N 45°33' W 073°31'0 0.0
2016-Jul-25 14:30N 45°33' W 073°31'0 0.0
2016-Jul-25 13:24N 45°33' W 073°31'0 0.0
2016-Jul-25 12:33N 45°33' W 073°31'0 0.0
2016-Jul-25 11:33N 45°33' W 073°31'0 0.0
2016-Jul-25 10:30N 45°33' W 073°31'0 0.0
2016-Jul-25 09:33N 45°33' W 073°31'0 0.0
2016-Jul-25 08:30N 45°33' W 073°31'0 0.0
2016-Jul-25 07:30N 45°33' W 073°31'0 0.0
2016-Jul-25 06:30N 45°33' W 073°31'0 0.0
2016-Jul-25 05:27N 45°33' W 073°31'0 0.0
2016-Jul-25 04:33N 45°33' W 073°31'0 0.0
2016-Jul-25 03:33N 45°33' W 073°31'0 0.0
2016-Jul-25 02:33N 45°33' W 073°31'0 0.0
2016-Jul-25 01:30N 45°33' W 073°31'0 0.0
2016-Jul-25 00:33N 45°33' W 073°31'4 3.4
2016-Jul-24 23:21N 45°37' W 073°30'7 8.8
2016-Jul-24 22:33N 45°44' W 073°25'1010.4
2016-Jul-24 21:33N 45°52' W 073°16'9 9.0
2016-Jul-24 20:33N 45°60' W 073°11'1 0.5
2016-Jul-24 19:31N 46°00' W 073°10'0 0.0
2016-Jul-24 18:25N 46°00' W 073°10'0 0.0
2016-Jul-24 17:31N 46°00' W 073°10'0 0.0
2016-Jul-24 16:31N 46°00' W 073°10'0 0.0
2016-Jul-24 15:31N 46°00' W 073°10'0 0.0
2016-Jul-24 14:31N 46°00' W 073°10'0 0.0
2016-Jul-24 13:31N 46°00' W 073°10'0 0.0
2016-Jul-24 12:31N 46°00' W 073°10'0 0.0
2016-Jul-24 11:31N 46°00' W 073°10'0 0.0
2016-Jul-24 10:31N 46°00' W 073°10'0 0.0
2016-Jul-24 09:31N 46°00' W 073°10'0 0.0
2016-Jul-24 08:31N 46°00' W 073°10'0 0.0
2016-Jul-24 07:31N 46°00' W 073°10'0 0.0
2016-Jul-24 06:31N 46°00' W 073°10'0 0.0
2016-Jul-24 05:31N 46°00' W 073°10'0 0.0
2016-Jul-24 04:31N 46°00' W 073°10'0 0.0
2016-Jul-24 03:31N 46°00' W 073°10'0 0.0
2016-Jul-24 02:31N 46°00' W 073°10'0 0.0
2016-Jul-24 01:31N 46°00' W 073°10'0 0.0
2016-Jul-24 00:31N 46°00' W 073°10'0 0.0
2016-Jul-23 23:31N 46°00' W 073°10'0 0.0
2016-Jul-23 22:31N 46°00' W 073°10'0 0.0
2016-Jul-23 21:31N 46°00' W 073°10'0 0.0
2016-Jul-23 20:31N 46°00' W 073°10'0 0.0
2016-Jul-23 19:31N 46°00' W 073°10'0 0.0
2016-Jul-23 18:31N 46°00' W 073°10'0 0.0
2016-Jul-23 17:31N 46°00' W 073°10'0 0.0
2016-Jul-23 16:31N 46°00' W 073°10'0 0.0
2016-Jul-23 15:31N 46°00' W 073°10'0 0.0
2016-Jul-23 14:31N 46°00' W 073°10'0 0.0
2016-Jul-23 13:31N 46°00' W 073°10'0 0.0
2016-Jul-23 12:19N 46°00' W 073°10'0 0.0
2016-Jul-23 11:31N 46°00' W 073°10'0 0.0
2016-Jul-23 10:31N 46°00' W 073°10'0 0.0
2016-Jul-23 09:31N 46°00' W 073°10'0 0.0
2016-Jul-23 08:31N 46°00' W 073°10'0 0.0
2016-Jul-23 07:31N 46°00' W 073°10'0 0.0
2016-Jul-23 06:31N 46°00' W 073°10'0 0.0
2016-Jul-23 04:31N 46°00' W 073°10'0 0.0
2016-Jul-23 03:31N 46°00' W 073°10'0 0.0
2016-Jul-23 02:31N 46°00' W 073°10'0 0.0
2016-Jul-23 01:31N 46°00' W 073°10'0 0.0
2016-Jul-23 00:31N 46°00' W 073°10'0 0.0
2016-Jul-22 23:31N 46°00' W 073°10'0 0.0
2016-Jul-22 22:31N 46°00' W 073°10'0 0.0
2016-Jul-22 21:31N 46°00' W 073°10'0 0.0
2016-Jul-22 20:31N 46°00' W 073°10'0 0.0
2016-Jul-22 19:31N 46°00' W 073°10'0 0.0
2016-Jul-22 18:31N 46°00' W 073°10'0 0.0
2016-Jul-22 17:31N 46°00' W 073°10'0 0.0
2016-Jul-22 16:31N 46°00' W 073°10'0 0.0
2016-Jul-22 15:31N 46°00' W 073°10'0 0.0
2016-Jul-22 14:31N 46°00' W 073°10'0 0.0
2016-Jul-22 13:31N 46°00' W 073°10'0 0.0
2016-Jul-22 12:31N 46°00' W 073°10'0 0.0
2016-Jul-22 11:31N 46°00' W 073°10'0 0.0
2016-Jul-22 10:31N 46°00' W 073°10'0 0.0
2016-Jul-22 09:31N 46°00' W 073°10'0 0.0
2016-Jul-22 08:31N 46°00' W 073°10'0 0.0
2016-Jul-22 07:31N 46°00' W 073°10'0 0.0
2016-Jul-22 04:31N 46°00' W 073°10'0 0.0
2016-Jul-22 03:31N 46°00' W 073°10'0 0.0
2016-Jul-22 02:31N 46°00' W 073°10'0 0.0
2016-Jul-22 01:31N 46°00' W 073°10'0 0.0
2016-Jul-22 00:31N 46°00' W 073°10'0 0.0
2016-Jul-21 23:31N 46°00' W 073°10'0 0.0
2016-Jul-21 22:31N 46°00' W 073°10'0 0.0
2016-Jul-21 21:31N 46°00' W 073°10'0 0.0
2016-Jul-21 20:31N 46°00' W 073°10'0 0.0
2016-Jul-21 19:31N 46°00' W 073°10'0 0.0
2016-Jul-21 18:31N 46°00' W 073°10'0 0.0
2016-Jul-21 17:31N 46°00' W 073°10'0 0.0
2016-Jul-21 16:31N 46°00' W 073°10'0 0.0
2016-Jul-21 15:31N 46°00' W 073°10'0 0.0
2016-Jul-21 14:31N 46°00' W 073°10'0 0.0
2016-Jul-21 13:31N 46°00' W 073°10'0 0.0
2016-Jul-21 12:31N 46°00' W 073°10'0 0.0
2016-Jul-21 11:28N 46°00' W 073°10'0 0.0
2016-Jul-21 10:31N 46°00' W 073°10'0 0.0
2016-Jul-21 09:31N 46°00' W 073°10'0 0.0
2016-Jul-21 08:31N 46°00' W 073°10'0 0.0
2016-Jul-21 07:31N 46°00' W 073°10'0 0.0
2016-Jul-21 06:31N 46°00' W 073°10'0 0.0
2016-Jul-21 05:31N 46°00' W 073°10'0 0.0
2016-Jul-21 04:31N 46°00' W 073°10'0 0.0
2016-Jul-21 03:31N 46°00' W 073°10'0 0.0
2016-Jul-21 02:25N 46°00' W 073°10'0 0.0
2016-Jul-21 01:31N 46°00' W 073°10'0 0.0
2016-Jul-21 00:31N 46°00' W 073°10'0 0.0
2016-Jul-20 23:31N 46°00' W 073°10'0 0.0
2016-Jul-20 22:31N 46°00' W 073°10'0 0.0
2016-Jul-20 21:31N 46°00' W 073°10'0 0.0
2016-Jul-20 20:31N 46°00' W 073°10'0 0.0
2016-Jul-20 19:31N 46°00' W 073°10'0 0.0
2016-Jul-20 18:31N 46°00' W 073°10'0 0.0
2016-Jul-20 17:31N 46°00' W 073°10'0 0.0
2016-Jul-20 16:25N 46°00' W 073°10'0 0.0
2016-Jul-20 15:31N 46°00' W 073°10'0 0.0
2016-Jul-20 14:28N 46°00' W 073°10'0 0.0
2016-Jul-20 13:31N 46°00' W 073°10'0 0.0
2016-Jul-20 12:31N 46°00' W 073°10'0 0.0
2016-Jul-20 11:31N 46°00' W 073°10'0 0.0
2016-Jul-20 10:31N 46°00' W 073°10'0 0.0
2016-Jul-20 09:34N 46°00' W 073°10'0 0.0
2016-Jul-20 08:19N 46°00' W 073°10'0 0.0
2016-Jul-20 07:31N 46°00' W 073°10'0 0.0
2016-Jul-20 06:34N 46°00' W 073°10'0 0.0
2016-Jul-20 05:31N 46°00' W 073°10'0 0.0
2016-Jul-20 04:31N 46°00' W 073°10'0 0.0
2016-Jul-20 03:31N 46°00' W 073°10'0 0.0
2016-Jul-20 02:31N 46°00' W 073°10'0 0.0
2016-Jul-20 01:31N 46°00' W 073°10'0 0.0
2016-Jul-20 00:31N 46°00' W 073°10'0 0.0
2016-Jul-19 23:31N 46°00' W 073°10'0 0.0
2016-Jul-19 22:31N 46°00' W 073°10'0 0.0
2016-Jul-19 21:31N 46°00' W 073°10'0 0.0
2016-Jul-19 20:31N 46°00' W 073°10'0 0.0
2016-Jul-19 19:31N 46°00' W 073°10'0 0.0
2016-Jul-19 18:31N 46°00' W 073°10'0 0.0
2016-Jul-19 17:31N 46°00' W 073°10'0 0.0
2016-Jul-19 16:31N 46°00' W 073°10'0 0.0
2016-Jul-19 15:31N 46°00' W 073°10'0 0.0
2016-Jul-19 14:31N 46°00' W 073°10'0 0.0
2016-Jul-19 13:31N 46°00' W 073°10'0 0.0
2016-Jul-19 12:31N 46°00' W 073°10'0 0.0
2016-Jul-19 11:31N 46°00' W 073°10'0 0.0
2016-Jul-19 10:31N 46°00' W 073°10'0 0.0
2016-Jul-19 09:31N 46°00' W 073°10'0 0.0
2016-Jul-19 08:31N 46°00' W 073°10'0 0.1
2016-Jul-19 07:33N 46°00' W 073°10'25 8.5
2016-Jul-19 04:33N 46°16' W 072°41'  

Dump ship's entire track history